createdAt,value
2023-05-02T00:00:04.150Z,100052.13
2023-05-02T00:02:30.900Z,100051.25
2023-05-02T00:04:57.858Z,100057.28
2023-05-02T00:07:26.786Z,100059.03
2023-05-02T00:09:56.189Z,100062.47
2023-05-02T00:12:23.289Z,100059.03
2023-05-02T00:14:50.576Z,100055.56
2023-05-02T00:17:22.837Z,100052.13
2023-05-02T00:19:49.706Z,100049.53
2023-05-02T00:22:18.804Z,100048.66
2023-05-02T00:24:48.205Z,100048.66
2023-05-02T00:27:19.358Z,100059.00
2023-05-02T00:29:48.532Z,100059.91
2023-05-02T00:32:15.159Z,100052.13
2023-05-02T00:34:41.922Z,100057.31
2023-05-02T00:37:11.850Z,100061.59
2023-05-02T00:39:38.687Z,100058.13
2023-05-02T00:42:08.401Z,100062.47
2023-05-02T00:44:35.204Z,100056.44
2023-05-02T00:47:05.134Z,100057.28
2023-05-02T00:49:32.598Z,100052.97
2023-05-02T00:51:59.843Z,100053.84
2023-05-02T00:54:26.487Z,100058.16
2023-05-02T00:56:53.213Z,100065.06
2023-05-02T00:59:23.306Z,100056.44
2023-05-02T01:01:52.761Z,100065.88
2023-05-02T01:04:44.434Z,100053.81
2023-05-02T01:07:47.462Z,100055.59
2023-05-02T01:10:26.414Z,100068.53
2023-05-02T01:13:09.944Z,100064.16
2023-05-02T01:15:42.115Z,100060.69
2023-05-02T01:18:18.589Z,100057.25
2023-05-02T01:20:48.287Z,100055.47
2023-05-02T01:23:25.542Z,100062.44
2023-05-02T01:26:13.911Z,100058.94
2023-05-02T01:29:08.349Z,100065.75
2023-05-02T01:31:43.733Z,100060.56
2023-05-02T01:34:13.383Z,100058.91
2023-05-02T01:36:45.560Z,100048.56
2023-05-02T01:39:21.397Z,100054.59
2023-05-02T01:41:52.132Z,100048.59
2023-05-02T01:44:23.616Z,100050.31
2023-05-02T01:46:53.203Z,100052.06
2023-05-02T01:49:21.628Z,100045.13
2023-05-02T01:51:49.950Z,100049.47
2023-05-02T01:54:18.520Z,100053.72
2023-05-02T01:56:46.524Z,100048.50
2023-05-02T01:59:17.765Z,100044.19
2023-05-02T02:01:46.007Z,100038.13
2023-05-02T02:04:15.547Z,100044.22
2023-05-02T02:06:48.965Z,100038.22
2023-05-02T02:09:20.848Z,100037.34
2023-05-02T02:11:52.555Z,100034.69
2023-05-02T02:14:22.381Z,100034.72
2023-05-02T02:16:53.741Z,100030.44
2023-05-02T02:19:26.305Z,100029.63
2023-05-02T02:21:58.312Z,100020.88
2023-05-02T02:24:28.920Z,100027.00
2023-05-02T02:26:55.615Z,100029.63
2023-05-02T02:29:22.388Z,100027.06
2023-05-02T02:31:48.948Z,100027.03
2023-05-02T02:34:15.889Z,100026.16
2023-05-02T02:36:57.171Z,100033.03
2023-05-02T02:39:23.667Z,100019.13
2023-05-02T02:42:18.876Z,100018.97
2023-05-02T02:45:10.541Z,100028.59
2023-05-02T02:47:47.232Z,100023.28
2023-05-02T02:50:19.582Z,100030.28
2023-05-02T02:52:53.539Z,100018.78
2023-05-02T02:55:25.504Z,100024.91
2023-05-02T02:58:03.575Z,100029.09
2023-05-02T03:00:32.618Z,100029.06
2023-05-02T03:02:59.146Z,100025.91
2023-05-02T03:05:26.038Z,100032.78
2023-05-02T03:07:55.235Z,100030.88
2023-05-02T03:10:26.874Z,100033.66
2023-05-02T03:12:56.061Z,100036.25
2023-05-02T03:15:52.513Z,100037.00
2023-05-02T03:18:21.659Z,100037.78
2023-05-02T03:20:48.184Z,100033.66
2023-05-02T03:23:14.721Z,100040.63
2023-05-02T03:25:41.734Z,100038.72
2023-05-02T03:28:11.158Z,100042.88
2023-05-02T03:30:40.793Z,100037.09
2023-05-02T03:33:08.921Z,100044.00
2023-05-02T03:35:40.097Z,100045.66
2023-05-02T03:38:09.111Z,100047.22
2023-05-02T03:40:38.492Z,100048.03
2023-05-02T03:43:05.075Z,100053.19
2023-05-02T03:45:31.630Z,100054.94
2023-05-02T03:48:00.598Z,100058.28
2023-05-02T03:50:27.062Z,100050.56
2023-05-02T03:52:53.624Z,100052.22
2023-05-02T03:55:21.445Z,100058.41
2023-05-02T03:57:48.082Z,100054.22
2023-05-02T04:00:17.701Z,100062.00
2023-05-02T04:02:49.206Z,100056.97
2023-05-02T04:05:16.000Z,100058.69
2023-05-02T04:07:42.845Z,100061.19
2023-05-02T04:10:16.568Z,100058.47
2023-05-02T04:12:43.476Z,100067.09
2023-05-02T04:15:14.795Z,100063.44
2023-05-02T04:17:41.438Z,100070.53
2023-05-02T04:20:11.472Z,100072.38
2023-05-02T04:22:39.703Z,100070.56
2023-05-02T04:25:07.686Z,100075.25
2023-05-02T04:27:34.359Z,100077.28
2023-05-02T04:30:03.565Z,100075.63
2023-05-02T04:32:33.813Z,100083.44
2023-05-02T04:35:03.400Z,100081.00
2023-05-02T04:37:34.696Z,100078.38
2023-05-02T04:40:04.352Z,100077.69
2023-05-02T04:42:30.949Z,100085.44
2023-05-02T04:44:59.931Z,100078.63
2023-05-02T04:47:26.403Z,100077.84
2023-05-02T04:49:52.964Z,100088.25
2023-05-02T04:52:21.777Z,100092.56
2023-05-02T04:54:50.995Z,100090.84
2023-05-02T04:57:21.379Z,100090.88
2023-05-02T04:59:52.046Z,100095.22
2023-05-02T05:02:20.999Z,100094.41
2023-05-02T05:04:50.339Z,100097.88
2023-05-02T05:07:19.123Z,100091.81
2023-05-02T05:09:48.022Z,100093.53
2023-05-02T05:12:14.592Z,100097.88
2023-05-02T05:14:43.651Z,100090.94
2023-05-02T05:17:15.110Z,100098.75
2023-05-02T05:19:41.728Z,100107.34
2023-05-02T05:22:10.792Z,100105.63
2023-05-02T05:24:39.851Z,100107.34
2023-05-02T05:27:09.730Z,100107.34
2023-05-02T05:29:36.312Z,100103.91
2023-05-02T05:32:06.237Z,100111.66
2023-05-02T05:34:33.131Z,100117.69
2023-05-02T05:37:03.138Z,100119.44
2023-05-02T05:39:32.658Z,100112.53
2023-05-02T05:42:04.150Z,100122.91
2023-05-02T05:44:34.184Z,100120.31
2023-05-02T05:47:00.905Z,100119.41
2023-05-02T05:49:38.494Z,100115.91
2023-05-02T05:52:05.437Z,100122.78
2023-05-02T05:54:31.967Z,100123.63
2023-05-02T05:56:58.628Z,100136.63
2023-05-02T05:59:25.202Z,100124.47
2023-05-02T06:01:54.214Z,100121.91
2023-05-02T06:04:20.895Z,100129.63
2023-05-02T06:06:51.512Z,100135.69
2023-05-02T06:09:18.231Z,100137.34
2023-05-02T06:11:47.301Z,100135.66
2023-05-02T06:14:13.870Z,100131.31
2023-05-02T06:16:40.620Z,100143.41
2023-05-02T06:19:07.286Z,100121.78
2023-05-02T06:21:39.156Z,100129.53
2023-05-02T06:24:06.076Z,100126.97
2023-05-02T06:26:37.444Z,100124.41
2023-05-02T06:29:04.001Z,100136.41
2023-05-02T06:31:30.588Z,100137.25
2023-05-02T06:33:57.149Z,100132.91
2023-05-02T06:36:23.718Z,100138.00
2023-05-02T06:38:52.466Z,100136.22
2023-05-02T06:41:21.290Z,100138.88
2023-05-02T06:43:47.833Z,100137.97
2023-05-02T06:46:14.582Z,100139.56
2023-05-02T06:48:41.274Z,100132.59
2023-05-02T06:51:11.055Z,100132.50
2023-05-02T06:53:37.643Z,100140.28
2023-05-02T06:56:05.602Z,100128.00
2023-05-02T06:58:36.735Z,100132.47
2023-05-02T07:01:03.493Z,100128.81
2023-05-02T07:03:33.079Z,100128.59
2023-05-02T07:06:01.946Z,100130.25
2023-05-02T07:08:28.376Z,100131.06
2023-05-02T07:10:59.386Z,100138.84
2023-05-02T07:13:28.125Z,100131.88
2023-05-02T07:15:54.784Z,100130.00
2023-05-02T07:18:23.437Z,100132.63
2023-05-02T07:20:55.204Z,100133.41
2023-05-02T07:23:23.670Z,100126.66
2023-05-02T07:25:50.259Z,100128.34
2023-05-02T07:28:19.301Z,100133.16
2023-05-02T07:30:46.084Z,100126.06
2023-05-02T07:33:12.736Z,100132.78
2023-05-02T07:35:39.345Z,100137.13
2023-05-02T07:38:06.060Z,100132.66
2023-05-02T07:40:32.634Z,100137.00
2023-05-02T07:43:01.142Z,100131.41
2023-05-02T07:45:27.827Z,100136.53
2023-05-02T07:47:54.391Z,100135.50
2023-05-02T07:50:21.159Z,100144.28
2023-05-02T07:52:49.790Z,100141.69
2023-05-02T07:55:19.193Z,100137.03
2023-05-02T07:57:50.280Z,100140.41
2023-05-02T08:00:19.540Z,100136.56
2023-05-02T08:02:46.389Z,100138.03
2023-05-02T08:05:13.228Z,100137.63
2023-05-02T08:07:39.956Z,100129.91
2023-05-02T08:10:10.538Z,100134.00
2023-05-02T08:12:41.294Z,100130.53
2023-05-02T08:15:10.392Z,100133.06
2023-05-02T08:17:37.112Z,100132.19
2023-05-02T08:20:06.987Z,100135.47
2023-05-02T08:22:35.856Z,100146.75
2023-05-02T08:25:04.818Z,100139.72
2023-05-02T08:27:35.424Z,100139.00
2023-05-02T08:30:04.741Z,100137.03
2023-05-02T08:32:32.839Z,100140.47
2023-05-02T08:35:02.626Z,100142.44
2023-05-02T08:37:29.215Z,100126.88
2023-05-02T08:39:55.794Z,100124.91
2023-05-02T08:42:22.798Z,100128.22
2023-05-02T08:44:52.463Z,100126.84
2023-05-02T08:47:21.706Z,100126.69
2023-05-02T08:49:53.012Z,100124.00
2023-05-02T08:52:20.537Z,100117.59
2023-05-02T08:54:47.647Z,100131.00
2023-05-02T08:57:14.284Z,100121.03
2023-05-02T08:59:43.382Z,100121.91
2023-05-02T09:02:23.972Z,100123.56
2023-05-02T09:04:56.017Z,100112.59
2023-05-02T09:07:22.608Z,100120.00
2023-05-02T09:09:53.654Z,100114.72
2023-05-02T09:12:28.094Z,100107.94
2023-05-02T09:15:21.044Z,100109.56
2023-05-02T09:17:50.467Z,100109.63
2023-05-02T09:20:17.206Z,100098.97
2023-05-02T09:22:53.052Z,100112.09
2023-05-02T09:25:21.204Z,100106.88
2023-05-02T09:27:55.490Z,100100.44
2023-05-02T09:30:26.678Z,100107.06
2023-05-02T09:32:55.907Z,100112.72
2023-05-02T09:35:28.741Z,100117.91
2023-05-02T09:38:01.963Z,100102.66
2023-05-02T09:40:30.178Z,100099.69
2023-05-02T09:42:59.066Z,100097.97
2023-05-02T09:45:26.737Z,100106.19
2023-05-02T09:47:55.809Z,100104.84
2023-05-02T09:50:35.710Z,100103.31
2023-05-02T09:53:07.296Z,100091.38
2023-05-02T09:55:36.360Z,100091.72
2023-05-02T09:58:06.592Z,100090.59
2023-05-02T10:00:43.200Z,100086.88
2023-05-02T10:03:10.738Z,100094.69
2023-05-02T10:05:39.146Z,100094.94
2023-05-02T10:08:07.558Z,100090.41
2023-05-02T10:10:40.625Z,100102.16
2023-05-02T10:13:11.143Z,100112.91
2023-05-02T10:15:47.174Z,100107.69
2023-05-02T10:18:21.262Z,100094.38
2023-05-02T10:20:59.189Z,100087.66
2023-05-02T10:23:32.339Z,100082.59
2023-05-02T10:26:01.727Z,100084.63
2023-05-02T10:28:31.149Z,100080.78
2023-05-02T10:31:00.512Z,100079.47
2023-05-02T10:33:31.575Z,100083.41
2023-05-02T10:36:04.165Z,100082.59
2023-05-02T10:38:31.419Z,100075.63
2023-05-02T10:41:01.702Z,100081.44
2023-05-02T10:43:35.001Z,100087.53
2023-05-02T10:46:05.417Z,100087.47
2023-05-02T10:48:32.105Z,100079.34
2023-05-02T10:51:01.819Z,100075.16
2023-05-02T10:53:44.872Z,100069.41
2023-05-02T10:56:16.548Z,100075.59
2023-05-02T10:58:48.902Z,100078.88
2023-05-02T11:01:37.937Z,100077.31
2023-05-02T11:04:09.336Z,100070.81
2023-05-02T11:07:15.039Z,100072.66
2023-05-02T11:09:46.905Z,100063.19
2023-05-02T11:12:49.764Z,100066.19
2023-05-02T11:15:44.645Z,100052.59
2023-05-02T11:18:14.614Z,100046.78
2023-05-02T11:20:44.467Z,100049.13
2023-05-02T11:23:13.980Z,100050.66
2023-05-02T11:25:47.553Z,100047.41
2023-05-02T11:28:39.200Z,100047.69
2023-05-02T11:31:07.209Z,100039.88
2023-05-02T11:33:34.222Z,100056.53
2023-05-02T11:36:03.439Z,100044.81
2023-05-02T11:38:40.250Z,100047.41
2023-05-02T11:41:09.042Z,100035.38
2023-05-02T11:43:35.830Z,100035.69
2023-05-02T11:46:02.976Z,100038.25
2023-05-02T11:48:33.281Z,100032.00
2023-05-02T11:51:03.711Z,100041.53
2023-05-02T11:53:31.620Z,100038.13
2023-05-02T11:56:05.087Z,100031.59
2023-05-02T11:58:33.468Z,100036.31
2023-05-02T12:01:15.076Z,100033.44
2023-05-02T12:03:48.501Z,100030.31
2023-05-02T12:06:20.601Z,100025.25
2023-05-02T12:08:49.026Z,100024.34
2023-05-02T12:11:16.840Z,100028.88
2023-05-02T12:13:50.691Z,100029.31
2023-05-02T12:16:18.490Z,100031.66
2023-05-02T12:18:45.700Z,100022.72
2023-05-02T12:21:15.114Z,100018.34
2023-05-02T12:23:44.439Z,100023.72
2023-05-02T12:26:22.333Z,100007.72
2023-05-02T12:28:54.985Z,100011.00
2023-05-02T12:31:24.978Z,100011.00
2023-05-02T12:33:57.674Z,100007.81
2023-05-02T12:36:24.924Z,100008.56
2023-05-02T12:38:57.160Z,100005.22
2023-05-02T12:41:37.392Z,100002.03
2023-05-02T12:44:04.988Z,100001.81
2023-05-02T12:46:32.203Z,100011.94
2023-05-02T12:49:18.037Z,100005.38
2023-05-02T12:51:53.877Z,100008.78
2023-05-02T12:54:20.925Z,100014.19
2023-05-02T12:56:52.155Z,100002.16
2023-05-02T12:59:29.699Z,100007.47
2023-05-02T13:01:57.354Z,99998.19
2023-05-02T13:04:47.886Z,100008.47
2023-05-02T13:07:14.429Z,100010.19
2023-05-02T13:09:41.060Z,100005.78
2023-05-02T13:12:10.021Z,100011.63
2023-05-02T13:14:41.188Z,100005.72
2023-05-02T13:17:11.010Z,99997.94
2023-05-02T13:19:44.405Z,100003.28
2023-05-02T13:22:16.456Z,99996.34
2023-05-02T13:24:46.887Z,99996.47
2023-05-02T13:27:18.445Z,99996.16
2023-05-02T13:29:49.000Z,99991.56
2023-05-02T13:32:16.391Z,100000.34
2023-05-02T13:34:46.056Z,100005.09
2023-05-02T13:37:12.623Z,99990.19
2023-05-02T13:39:39.322Z,99983.84
2023-05-02T13:42:10.892Z,99991.50
2023-05-02T13:44:37.486Z,99995.19
2023-05-02T13:47:06.565Z,99995.25
2023-05-02T13:49:33.124Z,99994.31
2023-05-02T13:52:02.006Z,99993.94
2023-05-02T13:54:30.855Z,99991.50
2023-05-02T13:57:02.679Z,99994.78
2023-05-02T13:59:29.347Z,99992.31
2023-05-02T14:01:58.328Z,99989.75
2023-05-02T14:04:24.961Z,99993.16
2023-05-02T14:06:51.668Z,99993.47
2023-05-02T14:09:18.282Z,99987.66
2023-05-02T14:11:47.373Z,99985.16
2023-05-02T14:14:14.182Z,99985.16
2023-05-02T14:16:43.387Z,99992.56
2023-05-02T14:19:12.474Z,99989.34
2023-05-02T14:21:43.468Z,99989.44
2023-05-02T14:24:12.299Z,99985.31
2023-05-02T14:26:41.626Z,99990.34
2023-05-02T14:29:09.158Z,99975.91
2023-05-02T14:31:36.102Z,99989.53
2023-05-02T14:34:02.768Z,99982.56
2023-05-02T14:36:29.296Z,99989.22
2023-05-02T14:38:58.846Z,99987.06
2023-05-02T14:41:30.292Z,99984.47
2023-05-02T14:43:59.073Z,99989.38
2023-05-02T14:46:28.015Z,99984.59
2023-05-02T14:48:54.569Z,99981.38
2023-05-02T14:51:21.166Z,99986.81
2023-05-02T14:53:50.691Z,99989.13
2023-05-02T14:56:20.083Z,100000.44
2023-05-02T14:58:46.704Z,100005.16
2023-05-02T15:01:17.986Z,100000.72
2023-05-02T15:04:03.462Z,99999.63
2023-05-02T15:06:35.586Z,99997.72
2023-05-02T15:09:03.037Z,99989.13
2023-05-02T15:11:31.889Z,100006.69
2023-05-02T15:13:59.434Z,100007.66
2023-05-02T15:16:31.684Z,99994.63
2023-05-02T15:18:58.266Z,100001.53
2023-05-02T15:21:24.842Z,100003.34
2023-05-02T15:23:51.472Z,99986.97
2023-05-02T15:26:18.213Z,99992.41
2023-05-02T15:28:46.905Z,99991.75
2023-05-02T15:31:13.994Z,99986.03
2023-05-02T15:33:40.565Z,99991.47
2023-05-02T15:36:07.520Z,99991.66
2023-05-02T15:38:36.962Z,99989.38
2023-05-02T15:41:03.528Z,99985.00
2023-05-02T15:43:33.428Z,99979.88
2023-05-02T15:46:04.932Z,99981.16
2023-05-02T15:48:36.156Z,99985.16
2023-05-02T15:51:06.377Z,99983.44
2023-05-02T15:53:39.295Z,99978.84
2023-05-02T15:56:12.448Z,99989.19
2023-05-02T15:58:42.106Z,99981.72
2023-05-02T16:01:08.756Z,99982.94
2023-05-02T16:03:35.433Z,99977.41
2023-05-02T16:06:07.677Z,99983.09
2023-05-02T16:08:36.552Z,99980.31
2023-05-02T16:11:05.720Z,99974.50
2023-05-02T16:13:32.587Z,99980.56
2023-05-02T16:16:01.222Z,99984.81
2023-05-02T16:18:31.301Z,99986.53
2023-05-02T16:21:00.594Z,99983.28
2023-05-02T16:23:27.287Z,99991.13
2023-05-02T16:25:58.583Z,99988.88
2023-05-02T16:28:27.911Z,99986.56
2023-05-02T16:30:54.944Z,99989.41
2023-05-02T16:33:22.526Z,99982.97
2023-05-02T16:36:00.964Z,99990.47
2023-05-02T16:38:27.510Z,99987.47
2023-05-02T16:40:57.364Z,99989.41
2023-05-02T16:43:24.305Z,99997.84
2023-05-02T16:46:10.885Z,99990.00
2023-05-02T16:48:39.829Z,99994.81
2023-05-02T16:51:08.723Z,99991.94
2023-05-02T16:53:35.285Z,99995.78
2023-05-02T16:56:01.858Z,100004.34
2023-05-02T16:58:29.214Z,100007.63
2023-05-02T17:00:59.474Z,100017.94
2023-05-02T17:03:26.156Z,100030.97
2023-05-02T17:05:52.957Z,100030.63
2023-05-02T17:08:22.322Z,100032.53
2023-05-02T17:10:50.087Z,100034.38
2023-05-02T17:13:16.689Z,100023.94
2023-05-02T17:15:43.387Z,100026.59
2023-05-02T17:18:10.076Z,100024.50
2023-05-02T17:20:36.633Z,100035.84
2023-05-02T17:23:03.893Z,100035.13
2023-05-02T17:25:30.953Z,100040.81
2023-05-02T17:27:59.796Z,100045.75
2023-05-02T17:30:29.093Z,100050.06
2023-05-02T17:32:55.752Z,100039.81
2023-05-02T17:35:22.383Z,100049.19
2023-05-02T17:37:48.945Z,100043.09
2023-05-02T17:40:17.933Z,100049.50
2023-05-02T17:42:47.256Z,100054.13
2023-05-02T17:45:13.836Z,100051.59
2023-05-02T17:47:41.042Z,100051.75
2023-05-02T17:50:08.722Z,100055.03
2023-05-02T17:52:38.801Z,100049.69
2023-05-02T17:55:06.758Z,100049.91
2023-05-02T17:57:35.495Z,100058.59
2023-05-02T18:00:04.611Z,100051.75
2023-05-02T18:02:33.901Z,100052.47
2023-05-02T18:05:03.951Z,100056.94
2023-05-02T18:07:33.282Z,100049.88
2023-05-02T18:10:05.493Z,100045.66
2023-05-02T18:12:33.666Z,100051.66
2023-05-02T18:15:05.203Z,100053.22
2023-05-02T18:17:35.025Z,100054.97
2023-05-02T18:20:06.341Z,100062.13
2023-05-02T18:22:36.085Z,100058.78
2023-05-02T18:25:03.198Z,100072.75
2023-05-02T18:27:30.238Z,100077.00
2023-05-02T18:29:59.822Z,100086.59
2023-05-02T18:32:28.992Z,100094.69
2023-05-02T18:34:56.060Z,100102.34
2023-05-02T18:37:31.244Z,100098.81
2023-05-02T18:39:58.879Z,100104.09
2023-05-02T18:42:25.978Z,100093.75
2023-05-02T18:44:55.124Z,100109.31
2023-05-02T18:47:21.717Z,100099.16
2023-05-02T18:49:50.952Z,100100.03
2023-05-02T18:52:17.606Z,100109.78
2023-05-02T18:54:48.791Z,100102.03
2023-05-02T18:57:18.276Z,100108.81
2023-05-02T18:59:45.027Z,100109.78
2023-05-02T19:02:11.583Z,100113.31
2023-05-02T19:04:40.509Z,100116.81
2023-05-02T19:07:07.294Z,100127.09
2023-05-02T19:12:23.521Z,100154.16
2023-05-02T19:14:50.909Z,100160.25
2023-05-02T19:17:30.531Z,100169.78
2023-05-02T19:20:14.292Z,100176.78
2023-05-02T19:36:17.741Z,100166.81
2023-05-02T19:42:33.683Z,100134.81
2023-05-02T19:48:40.642Z,100149.50
2023-05-02T19:51:07.657Z,100155.53
2023-05-02T19:53:38.815Z,100160.66
2023-05-02T19:56:08.495Z,100154.66
2023-05-02T19:58:37.689Z,100152.19
2023-05-02T20:01:06.747Z,100145.34
2023-05-02T20:03:35.006Z,100141.00
2023-05-02T20:06:02.043Z,100151.38
2023-05-02T20:08:31.548Z,100150.50
2023-05-02T20:10:58.328Z,100157.38
2023-05-02T20:13:27.394Z,100165.19
2023-05-02T20:15:59.251Z,100171.22
2023-05-02T20:18:28.248Z,100165.22
2023-05-02T20:20:54.695Z,100173.81
2023-05-02T20:23:21.274Z,100183.34
2023-05-02T20:25:50.954Z,100193.72
2023-05-02T20:28:17.766Z,100199.75
2023-05-02T20:30:44.481Z,100202.31
2023-05-02T20:33:16.631Z,100212.72
2023-05-02T20:35:44.245Z,100224.78
2023-05-02T20:38:11.253Z,100236.88
2023-05-02T20:40:39.985Z,100243.81
2023-05-02T20:43:07.070Z,100227.38
2023-05-02T20:45:33.887Z,100223.06
2023-05-02T20:48:00.584Z,100218.75
2023-05-02T20:50:29.525Z,100212.69
2023-05-02T20:52:56.527Z,100210.06
2023-05-02T20:55:23.495Z,100198.00
2023-05-02T20:57:53.307Z,100193.69
2023-05-02T21:00:22.542Z,100190.22
2023-05-02T21:02:49.696Z,100176.38
2023-05-02T21:05:18.969Z,100178.09
2023-05-02T21:07:45.704Z,100190.19
2023-05-02T21:10:15.467Z,100190.16
2023-05-02T21:12:42.239Z,100196.13
2023-05-02T21:15:08.955Z,100185.84
2023-05-02T21:17:40.151Z,100192.78
2023-05-02T21:20:08.281Z,100211.81
2023-05-02T21:22:35.140Z,100215.28
2023-05-02T21:25:03.961Z,100219.59
2023-05-02T21:27:39.973Z,100216.16
2023-05-02T21:30:07.632Z,100214.44
2023-05-02T21:32:34.717Z,100221.34
2023-05-02T21:35:01.856Z,100215.25
2023-05-02T21:37:30.725Z,100217.88
2023-05-02T21:40:00.025Z,100215.28
2023-05-02T21:42:30.095Z,100221.34
2023-05-02T21:44:59.426Z,100220.47
2023-05-02T21:47:26.169Z,100213.56
2023-05-02T21:49:57.291Z,100227.38
2023-05-02T21:52:24.015Z,100229.97
2023-05-02T21:54:52.573Z,100233.44
2023-05-02T21:57:24.108Z,100238.63
2023-05-02T21:59:50.987Z,100248.97
2023-05-02T22:02:17.597Z,100247.25
2023-05-02T22:04:48.155Z,100257.63
2023-05-02T22:07:20.060Z,100255.03
2023-05-02T22:09:46.876Z,100257.63
2023-05-02T22:12:13.456Z,100256.75
2023-05-02T22:14:45.081Z,100261.09
2023-05-02T22:17:21.256Z,100267.09
2023-05-02T22:19:54.313Z,100274.88
2023-05-02T22:22:24.412Z,100270.59
2023-05-02T22:24:51.595Z,100276.63
2023-05-02T22:27:18.398Z,100274.91
2023-05-02T22:29:47.999Z,100280.09
2023-05-02T22:32:14.820Z,100280.09
2023-05-02T22:34:41.976Z,100278.38
2023-05-02T22:37:08.682Z,100281.81
2023-05-02T22:39:37.630Z,100280.09
2023-05-02T22:42:04.560Z,100280.13
2023-05-02T22:44:43.402Z,100276.69
2023-05-02T22:47:21.349Z,100280.06
2023-05-02T22:49:52.252Z,100272.25
2023-05-02T22:52:21.450Z,100273.91
2023-05-02T22:54:50.510Z,100264.38
2023-05-02T22:57:21.173Z,100264.44
2023-05-02T22:59:48.379Z,100265.22
2023-05-02T23:02:18.460Z,100270.13
2023-05-02T23:04:45.844Z,100253.88
2023-05-02T23:07:14.973Z,100265.25
2023-05-02T23:09:42.176Z,100262.63
2023-05-02T23:12:08.941Z,100267.63
2023-05-02T23:14:35.759Z,100267.59
2023-05-02T23:17:05.346Z,100259.97
2023-05-02T23:19:34.570Z,100270.41
2023-05-02T23:22:04.200Z,100269.59
2023-05-02T23:24:30.845Z,100273.91
2023-05-02T23:26:57.454Z,100271.31
2023-05-02T23:29:26.848Z,100274.72
2023-05-02T23:31:54.653Z,100267.81
2023-05-02T23:34:22.188Z,100268.63
2023-05-02T23:36:49.203Z,100260.06
2023-05-02T23:39:18.632Z,100257.47
2023-05-02T23:41:47.651Z,100253.88
2023-05-02T23:44:14.163Z,100261.59
2023-05-02T23:46:43.030Z,100265.88
2023-05-02T23:49:09.750Z,100264.91
2023-05-02T23:51:37.714Z,100264.13
2023-05-02T23:54:04.477Z,100265.88
2023-05-02T23:56:31.065Z,100256.28
2023-05-02T23:58:57.805Z,100268.25
